Time;durP1;ratioP1;P1;durP2;ratioP2;P2;SDS_P1;SDS_P2;PMS_P1;PMS_P2;Temp;Humidity;BMP_temperature;BMP_pressure;BME280_temperature;BME280_humidity;BME280_pressure;Samples;Min_cycle;Max_cycle;Signal;HPM_P1;HPM_P2
2021/04/22 00:00:10;;;;;;;26.85;16.02;;;8.30;81.90;;;;;;5093116;28;20020;-77
2021/04/22 00:02:42;;;;;;;25.83;16.77;;;8.30;81.80;;;;;;5079001;28;20111;-77
2021/04/22 00:05:38;;;;;;;29.35;16.90;;;8.30;81.70;;;;;;5077841;28;20020;-78
2021/04/22 00:08:22;;;;;;;26.67;15.00;;;8.30;81.50;;;;;;5070333;28;20032;-78
2021/04/22 00:10:51;;;;;;;27.98;15.18;;;8.40;81.60;;;;;;5090672;28;20470;-78
2021/04/22 00:13:23;;;;;;;29.70;15.02;;;8.40;81.50;;;;;;5080819;28;20505;-77
2021/04/22 00:15:50;;;;;;;20.90;13.50;;;8.50;81.50;;;;;;5085002;28;20358;-77
2021/04/22 00:18:16;;;;;;;23.83;14.13;;;8.50;81.30;;;;;;5088149;28;20028;-77
2021/04/22 00:20:42;;;;;;;23.40;14.35;;;8.60;81.20;;;;;;5087644;28;20020;-76
2021/04/22 00:23:10;;;;;;;24.17;15.13;;;8.60;81.00;;;;;;5092730;28;20078;-77
2021/04/22 00:25:36;;;;;;;23.70;15.25;;;8.60;80.70;;;;;;5092581;28;20024;-77
2021/04/22 00:28:04;;;;;;;24.85;15.65;;;8.60;80.70;;;;;;5077512;28;20081;-77
2021/04/22 00:30:30;;;;;;;22.48;14.90;;;8.60;80.50;;;;;;5078619;28;20020;-77
2021/04/22 00:32:56;;;;;;;26.80;16.50;;;8.60;80.40;;;;;;5071366;28;20130;-77
2021/04/22 00:35:22;;;;;;;33.25;18.38;;;8.60;80.10;;;;;;5083342;28;20091;-77
2021/04/22 00:37:48;;;;;;;25.67;17.27;;;8.50;79.90;;;;;;5092585;28;20034;-77
2021/04/22 00:40:23;;;;;;;30.08;17.95;;;8.40;79.90;;;;;;5093141;28;20012;-77
2021/04/22 00:42:50;;;;;;;39.08;26.05;;;8.30;79.90;;;;;;5094033;28;20031;-77
2021/04/22 00:45:17;;;;;;;45.83;28.83;;;8.30;79.80;;;;;;5094712;28;20099;-77
2021/04/22 00:47:43;;;;;;;40.55;24.98;;;8.20;80.00;;;;;;5093950;28;20039;-77
2021/04/22 00:50:16;;;;;;;42.38;25.50;;;8.20;80.10;;;;;;5093389;28;20026;-77
2021/04/22 00:52:42;;;;;;;57.70;36.20;;;8.10;80.20;;;;;;5093957;28;20028;-77
2021/04/22 00:55:09;;;;;;;47.30;27.50;;;8.10;80.20;;;;;;5094069;28;20047;-77
2021/04/22 00:57:35;;;;;;;49.05;30.67;;;8.00;80.50;;;;;;5103028;28;20020;-76
2021/04/22 01:00:06;;;;;;;43.13;27.23;;;8.00;80.60;;;;;;5108639;28;20083;-76
2021/04/22 01:02:33;;;;;;;47.45;28.50;;;8.00;80.60;;;;;;5112069;28;20016;-76
2021/04/22 01:04:58;;;;;;;54.53;31.65;;;8.00;80.50;;;;;;5100034;28;20093;-77
2021/04/22 01:07:24;;;;;;;54.20;26.75;;;7.90;80.50;;;;;;5079432;28;20063;-77
2021/04/22 01:09:50;;;;;;;49.25;27.27;;;7.80;80.60;;;;;;5089231;28;20044;-76
2021/04/22 01:12:16;;;;;;;46.08;28.70;;;7.80;80.70;;;;;;5083464;28;20025;-77
2021/04/22 01:14:42;;;;;;;45.85;26.50;;;7.80;81.00;;;;;;5098522;28;20469;-77
2021/04/22 01:17:08;;;;;;;42.00;24.98;;;7.80;81.20;;;;;;5083366;28;20370;-76
2021/04/22 01:19:35;;;;;;;42.88;24.83;;;7.80;81.30;;;;;;5094399;28;20385;-79
2021/04/22 01:22:01;;;;;;;46.83;26.63;;;7.80;81.20;;;;;;5095741;28;20028;-78
2021/04/22 01:24:27;;;;;;;46.53;26.13;;;7.80;81.10;;;;;;5094740;28;20095;-76
2021/04/22 01:26:53;;;;;;;37.05;20.77;;;7.80;81.10;;;;;;5094111;28;20074;-78
2021/04/22 01:29:18;;;;;;;38.53;23.23;;;7.80;81.10;;;;;;5095497;28;20035;-78
2021/04/22 01:31:44;;;;;;;41.50;24.10;;;7.80;81.00;;;;;;5085678;28;20413;-78
2021/04/22 01:34:11;;;;;;;39.70;24.15;;;7.80;81.00;;;;;;5074338;28;20051;-78
2021/04/22 01:36:43;;;;;;;33.90;21.35;;;7.80;81.00;;;;;;5093696;28;20035;-78
2021/04/22 01:39:12;;;;;;;36.47;21.95;;;7.80;81.00;;;;;;5094973;28;20031;-78
2021/04/22 01:41:40;;;;;;;30.50;20.40;;;7.80;81.10;;;;;;5089749;28;20031;-78
2021/04/22 01:44:06;;;;;;;34.50;22.40;;;7.70;81.00;;;;;;5095518;28;20024;-78
2021/04/22 01:46:32;;;;;;;39.03;22.50;;;7.70;81.00;;;;;;5094419;28;20024;-78
2021/04/22 01:48:58;;;;;;;42.03;24.02;;;7.70;81.30;;;;;;5095086;28;20027;-78
2021/04/22 01:51:24;;;;;;;35.20;22.33;;;7.70;81.30;;;;;;5094967;28;20020;-78
2021/04/22 01:53:51;;;;;;;37.30;21.63;;;7.70;81.30;;;;;;5093130;28;20016;-79
2021/04/22 01:56:18;;;;;;;34.28;21.88;;;7.70;81.30;;;;;;5095343;28;20024;-78
2021/04/22 01:58:44;;;;;;;33.20;21.45;;;7.70;81.30;;;;;;5078943;28;21164;-78
2021/04/22 02:01:16;;;;;;;26.88;17.23;;;7.70;81.20;;;;;;5084804;28;20081;-79
2021/04/22 02:03:42;;;;;;;30.27;19.00;;;7.70;81.30;;;;;;5074676;28;20024;-79
2021/04/22 02:06:10;;;;;;;31.23;16.70;;;7.70;81.40;;;;;;5094577;28;20008;-79
2021/04/22 02:08:36;;;;;;;26.77;16.45;;;7.70;81.50;;;;;;5092401;28;20032;-78
2021/04/22 02:11:03;;;;;;;21.35;14.32;;;7.60;81.50;;;;;;5081035;28;20040;-78
2021/04/22 02:13:31;;;;;;;26.02;16.23;;;7.60;81.70;;;;;;5094850;28;20077;-79
2021/04/22 02:15:59;;;;;;;25.02;15.63;;;7.60;81.70;;;;;;5094210;28;20020;-78
2021/04/22 02:18:27;;;;;;;24.13;14.68;;;7.60;82.00;;;;;;5095167;28;20035;-78
2021/04/22 02:20:53;;;;;;;24.98;14.73;;;7.60;82.10;;;;;;5095148;28;20013;-80
2021/04/22 02:23:21;;;;;;;22.50;15.18;;;7.60;82.20;;;;;;5094774;28;20089;-78
2021/04/22 02:25:50;;;;;;;25.15;15.25;;;7.60;82.20;;;;;;5094512;28;20016;-78
2021/04/22 02:28:16;;;;;;;30.25;16.52;;;7.60;82.30;;;;;;5097376;28;20028;-79
2021/04/22 02:30:44;;;;;;;37.78;18.65;;;7.60;82.20;;;;;;5098100;28;20024;-78
2021/04/22 02:33:13;;;;;;;28.02;15.25;;;7.60;82.40;;;;;;5088670;28;20027;-78
2021/04/22 02:35:41;;;;;;;30.75;16.52;;;7.60;82.50;;;;;;5085763;28;20025;-78
2021/04/22 02:38:10;;;;;;;34.05;15.82;;;7.60;82.60;;;;;;5091566;28;20039;-77
2021/04/22 02:40:38;;;;;;;34.00;17.08;;;7.70;82.80;;;;;;5108429;28;20392;-77
2021/04/22 02:43:09;;;;;;;64.38;23.48;;;7.70;82.70;;;;;;5116028;28;20028;-77
2021/04/22 02:45:38;;;;;;;58.42;23.92;;;7.80;82.50;;;;;;5103902;28;20024;-77
2021/04/22 02:48:05;;;;;;;46.47;19.38;;;7.80;82.30;;;;;;5117055;28;20043;-77
2021/04/22 02:50:33;;;;;;;32.80;15.68;;;7.80;82.30;;;;;;5108440;28;20024;-78
2021/04/22 02:52:59;;;;;;;27.20;14.95;;;7.80;82.20;;;;;;5098525;28;20468;-78
2021/04/22 02:55:25;;;;;;;22.17;12.73;;;7.90;82.20;;;;;;5097927;28;20089;-78
2021/04/22 02:57:51;;;;;;;23.80;14.00;;;7.90;82.30;;;;;;5093886;28;20446;-78
2021/04/22 03:00:21;;;;;;;19.63;12.93;;;7.90;82.30;;;;;;5093356;28;20020;-78
2021/04/22 03:02:47;;;;;;;20.88;13.13;;;8.00;82.50;;;;;;5083845;28;20028;-78
2021/04/22 03:05:14;;;;;;;21.17;12.88;;;8.10;82.50;;;;;;5072096;28;20347;-78
2021/04/22 03:07:40;;;;;;;19.52;12.82;;;8.20;82.60;;;;;;5086358;28;20403;-78
2021/04/22 03:10:08;;;;;;;22.73;13.75;;;8.30;82.60;;;;;;5086312;28;20079;-78
2021/04/22 03:12:34;;;;;;;16.67;12.35;;;8.40;82.70;;;;;;5091588;28;20020;-78
2021/04/22 03:15:01;;;;;;;18.77;12.65;;;8.60;82.80;;;;;;5095793;28;20031;-78
2021/04/22 03:17:26;;;;;;;28.48;14.88;;;8.80;82.50;;;;;;5093477;28;20043;-78
2021/04/22 03:19:52;;;;;;;33.35;16.15;;;8.90;82.40;;;;;;5093336;28;20024;-78
2021/04/22 03:22:18;;;;;;;22.25;13.57;;;9.10;82.00;;;;;;5077833;28;20027;-78
2021/04/22 03:24:44;;;;;;;24.15;13.88;;;9.20;81.50;;;;;;5091673;28;20035;-77
2021/04/22 03:27:10;;;;;;;20.45;12.65;;;9.30;80.90;;;;;;5091998;28;20131;-78
2021/04/22 03:29:35;;;;;;;20.05;13.48;;;9.30;80.40;;;;;;5091248;28;20024;-77
2021/04/22 03:32:01;;;;;;;19.08;12.93;;;9.50;79.80;;;;;;5091189;28;20046;-77
2021/04/22 03:34:27;;;;;;;15.93;10.70;;;9.40;79.10;;;;;;5090674;28;20450;-77
2021/04/22 03:36:53;;;;;;;16.33;11.52;;;9.40;78.60;;;;;;5091579;28;20075;-78
2021/04/22 03:39:18;;;;;;;16.35;10.90;;;9.40;77.80;;;;;;5091088;28;20034;-77
2021/04/22 03:41:45;;;;;;;15.80;11.45;;;9.30;77.50;;;;;;5091276;28;20034;-78
2021/04/22 03:44:11;;;;;;;20.85;12.10;;;9.30;77.70;;;;;;5089398;28;20450;-76
2021/04/22 03:46:36;;;;;;;37.03;21.63;;;9.20;78.10;;;;;;5092303;28;20115;-78
2021/04/22 03:49:03;;;;;;;25.20;15.13;;;9.20;78.70;;;;;;5091116;28;20107;-77
2021/04/22 03:51:29;;;;;;;24.95;15.20;;;9.30;79.10;;;;;;5091613;28;20028;-78
2021/04/22 03:53:55;;;;;;;30.33;16.10;;;9.40;78.80;;;;;;5091916;28;20058;-77
2021/04/22 03:56:21;;;;;;;25.98;15.27;;;9.50;78.70;;;;;;5092962;28;20389;-78
2021/04/22 03:58:46;;;;;;;26.25;14.30;;;9.70;79.70;;;;;;5090728;28;20028;-77
2021/04/22 04:01:12;;;;;;;28.15;15.48;;;9.90;80.30;;;;;;5091511;28;20366;-77
2021/04/22 04:03:38;;;;;;;31.08;16.52;;;10.30;81.00;;;;;;5091191;28;20540;-77
2021/04/22 04:06:04;;;;;;;38.00;18.17;;;10.60;79.90;;;;;;5092874;28;20046;-78
2021/04/22 04:08:29;;;;;;;39.30;18.80;;;10.90;79.70;;;;;;5090929;28;20473;-76
2021/04/22 04:10:55;;;;;;;32.17;16.73;;;11.20;78.70;;;;;;5090662;28;20075;-77
2021/04/22 04:13:21;;;;;;;28.40;15.15;;;11.50;78.10;;;;;;5088921;28;20020;-77
2021/04/22 04:15:48;;;;;;;19.75;13.82;;;11.80;77.40;;;;;;5091263;28;20016;-78
2021/04/22 04:18:17;;;;;;;28.95;15.68;;;12.20;76.90;;;;;;5091214;28;20028;-80
2021/04/22 04:20:43;;;;;;;37.90;16.13;;;12.60;76.10;;;;;;5091140;28;20031;-79
2021/04/22 04:23:09;;;;;;;31.70;15.27;;;13.20;75.10;;;;;;5093292;28;20028;-80
2021/04/22 04:25:35;;;;;;;43.65;17.13;;;13.60;73.90;;;;;;5102912;28;20035;-79
2021/04/22 04:28:01;;;;;;;48.58;19.17;;;14.10;72.80;;;;;;5112611;28;20026;-79
2021/04/22 04:30:27;;;;;;;47.63;18.92;;;14.60;71.20;;;;;;5112781;28;20060;-76
2021/04/22 04:32:52;;;;;;;66.70;22.67;;;15.00;69.20;;;;;;5106609;28;20016;-79
2021/04/22 04:35:18;;;;;;;62.83;21.40;;;15.20;67.10;;;;;;5117974;28;20035;-79
2021/04/22 04:37:44;;;;;;;53.63;20.50;;;15.20;66.00;;;;;;5117343;28;20066;-77
2021/04/22 04:40:12;;;;;;;36.33;16.55;;;15.40;65.20;;;;;;5119689;28;20041;-79
2021/04/22 04:42:38;;;;;;;33.38;14.65;;;15.50;64.40;;;;;;5111238;28;20062;-78
2021/04/22 04:45:09;;;;;;;22.00;12.00;;;15.70;64.30;;;;;;5101381;28;20103;-81
2021/04/22 04:47:35;;;;;;;18.83;11.20;;;15.90;63.00;;;;;;5097346;28;20826;-80
2021/04/22 04:50:02;;;;;;;19.80;10.80;;;16.10;62.80;;;;;;5096198;28;20020;-82
2021/04/22 04:52:28;;;;;;;18.10;10.98;;;16.30;62.40;;;;;;5096205;28;20020;-83
2021/04/22 04:54:54;;;;;;;30.17;12.40;;;16.50;62.40;;;;;;5091293;28;20374;-82
2021/04/22 04:57:20;;;;;;;31.05;14.38;;;16.90;62.00;;;;;;5092444;28;20023;-79
2021/04/22 04:59:46;;;;;;;29.60;14.82;;;17.10;60.50;;;;;;5095901;28;20036;-84
2021/04/22 05:02:11;;;;;;;23.55;12.15;;;17.20;58.70;;;;;;5096447;28;20019;-83
2021/04/22 05:04:37;;;;;;;29.48;13.32;;;17.10;58.80;;;;;;5086351;28;20031;-85
2021/04/22 05:07:03;;;;;;;24.73;12.30;;;17.20;59.10;;;;;;5091378;28;20020;-75
2021/04/22 05:09:29;;;;;;;38.88;15.90;;;17.20;59.50;;;;;;5092888;28;20131;-78
2021/04/22 05:11:54;;;;;;;70.30;24.88;;;17.50;58.80;;;;;;5086117;28;20028;-78
2021/04/22 05:14:20;;;;;;;137.13;39.80;;;17.50;57.20;;;;;;5089111;28;20100;-78
2021/04/22 05:16:46;;;;;;;157.05;46.60;;;17.50;57.50;;;;;;5094108;28;20034;-82
2021/04/22 05:19:11;;;;;;;143.32;43.13;;;17.60;57.00;;;;;;5093602;28;20039;-74
2021/04/22 05:21:37;;;;;;;119.03;38.42;;;17.80;56.40;;;;;;5092870;28;20032;-75
2021/04/22 05:24:04;;;;;;;71.75;24.40;;;17.90;56.10;;;;;;5094378;28;20020;-84
2021/04/22 05:26:29;;;;;;;68.45;24.67;;;18.00;56.10;;;;;;5092905;28;20052;-77
2021/04/22 05:28:55;;;;;;;84.53;28.05;;;18.10;55.80;;;;;;5093863;28;20071;-80
2021/04/22 05:31:24;;;;;;;95.45;30.08;;;18.30;55.70;;;;;;5093441;28;20137;-79
2021/04/22 05:33:50;;;;;;;74.82;27.55;;;18.60;54.50;;;;;;5089224;28;20095;-80
2021/04/22 05:36:16;;;;;;;67.10;24.42;;;18.90;54.00;;;;;;5092022;28;20440;-77
2021/04/22 05:38:42;;;;;;;55.78;22.17;;;19.20;53.60;;;;;;5091258;28;20119;-76
2021/04/22 05:41:08;;;;;;;67.15;24.02;;;19.30;52.40;;;;;;5091330;28;20114;-77
2021/04/22 05:43:34;;;;;;;91.05;31.58;;;19.30;52.70;;;;;;5092422;28;20020;-76
2021/04/22 05:46:01;;;;;;;151.25;49.08;;;19.60;53.40;;;;;;5092896;28;20019;-77
2021/04/22 05:48:27;;;;;;;157.32;52.45;;;19.80;52.10;;;;;;5093164;28;20036;-76
2021/04/22 05:50:53;;;;;;;118.90;38.92;;;19.60;51.30;;;;;;5082692;28;20028;-72
2021/04/22 05:53:21;;;;;;;152.45;46.55;;;19.50;51.80;;;;;;5092399;28;20062;-80
2021/04/22 05:55:47;;;;;;;103.72;33.38;;;19.60;51.90;;;;;;5093543;28;20024;-80
2021/04/22 05:58:13;;;;;;;98.38;32.97;;;19.80;51.90;;;;;;5093273;28;20978;-79
2021/04/22 06:00:39;;;;;;;129.82;41.50;;;19.90;50.80;;;;;;5093096;28;20035;-79
2021/04/22 06:03:05;;;;;;;139.18;42.85;;;19.90;50.80;;;;;;5091146;28;20481;-78
2021/04/22 06:05:31;;;;;;;121.68;39.05;;;20.00;50.80;;;;;;5093437;28;20020;-79
2021/04/22 06:07:58;;;;;;;146.07;43.60;;;20.10;50.80;;;;;;5092732;28;20161;-77
2021/04/22 06:10:24;;;;;;;77.13;27.73;;;20.10;50.90;;;;;;5088198;28;20036;-77
2021/04/22 06:12:50;;;;;;;101.53;33.45;;;20.40;51.30;;;;;;5085107;28;20016;-79
2021/04/22 06:15:18;;;;;;;108.45;37.30;;;20.80;50.80;;;;;;5084754;28;20260;-80
2021/04/22 06:17:45;;;;;;;120.82;39.03;;;20.80;49.20;;;;;;5099501;28;20028;-78
2021/04/22 06:20:18;;;;;;;107.35;34.60;;;20.90;49.00;;;;;;5106596;28;20008;-77
2021/04/22 06:22:45;;;;;;;82.53;29.05;;;20.70;48.60;;;;;;5102289;28;20024;-79
2021/04/22 06:25:12;;;;;;;28.65;13.40;;;20.70;49.40;;;;;;5116811;28;20020;-80
2021/04/22 06:27:38;;;;;;;21.40;11.35;;;20.80;49.10;;;;;;5116683;28;20067;-80
2021/04/22 06:30:05;;;;;;;16.08;10.25;;;21.00;49.80;;;;;;5101602;28;20035;-82
2021/04/22 06:32:31;;;;;;;13.45;9.55;;;21.40;49.70;;;;;;5096687;28;20967;-82
2021/04/22 06:34:56;;;;;;;15.65;10.35;;;21.90;49.00;;;;;;5103042;28;20043;-80
2021/04/22 06:37:22;;;;;;;20.05;11.57;;;22.50;48.80;;;;;;5114306;28;20039;-81
2021/04/22 06:39:48;;;;;;;39.50;16.23;;;23.10;47.70;;;;;;5100624;28;20592;-82
2021/04/22 06:42:14;;;;;;;45.47;17.70;;;23.50;46.30;;;;;;5099535;28;20111;-81
2021/04/22 06:44:40;;;;;;;47.08;18.55;;;23.70;44.50;;;;;;5094671;28;20020;-82
2021/04/22 06:47:06;;;;;;;55.63;21.63;;;23.50;43.80;;;;;;5095680;28;20065;-81
2021/04/22 06:49:31;;;;;;;71.60;25.17;;;23.50;44.70;;;;;;5094861;28;20114;-79
2021/04/22 06:51:57;;;;;;;80.03;27.73;;;23.50;44.50;;;;;;5094040;28;20327;-81
2021/04/22 06:54:23;;;;;;;92.88;30.85;;;23.70;45.00;;;;;;5092444;28;20070;-82
2021/04/22 06:56:49;;;;;;;76.53;26.75;;;24.00;44.90;;;;;;5093240;28;20091;-82
2021/04/22 06:59:15;;;;;;;66.57;24.05;;;24.50;44.20;;;;;;5092590;28;20466;-82
2021/04/22 07:01:41;;;;;;;61.35;23.95;;;24.90;43.40;;;;;;5093349;28;20020;-82
2021/04/22 07:04:07;;;;;;;69.13;24.70;;;25.30;42.50;;;;;;5092130;28;20118;-81
2021/04/22 07:06:32;;;;;;;59.20;21.73;;;25.50;41.30;;;;;;5093188;28;20031;-80
2021/04/22 07:08:58;;;;;;;14.77;10.15;;;25.50;41.10;;;;;;5092468;28;20054;-81
2021/04/22 07:11:24;;;;;;;30.73;13.25;;;25.50;39.60;;;;;;5093571;28;20016;-82
2021/04/22 07:13:50;;;;;;;18.08;9.93;;;25.10;40.00;;;;;;5092993;28;20054;-82
2021/04/22 07:16:16;;;;;;;16.60;9.88;;;25.00;40.00;;;;;;5093316;28;20056;-82
2021/04/22 07:18:42;;;;;;;13.70;9.20;;;24.90;40.30;;;;;;5092418;28;20366;-81
2021/04/22 07:21:08;;;;;;;13.98;9.00;;;25.00;39.90;;;;;;5093413;28;20028;-82
2021/04/22 07:23:34;;;;;;;11.60;8.18;;;25.20;39.90;;;;;;5092898;28;20020;-83
2021/04/22 07:25:59;;;;;;;10.32;8.32;;;25.00;38.80;;;;;;5093226;28;20019;-82
2021/04/22 07:28:25;;;;;;;11.32;8.95;;;24.80;38.60;;;;;;5091598;28;20069;-78
2021/04/22 07:30:52;;;;;;;11.93;8.27;;;24.60;39.20;;;;;;5091509;28;20098;-81
2021/04/22 07:33:18;;;;;;;17.15;9.32;;;24.50;38.70;;;;;;5093241;28;20073;-80
2021/04/22 07:35:44;;;;;;;14.70;9.25;;;24.60;39.70;;;;;;5093670;28;20443;-81
2021/04/22 07:38:14;;;;;;;14.35;9.00;;;24.60;39.70;;;;;;5091972;28;20054;-82
2021/04/22 07:40:41;;;;;;;14.32;8.57;;;24.70;39.40;;;;;;5092654;28;20020;-82
2021/04/22 07:43:07;;;;;;;17.80;9.82;;;24.80;39.50;;;;;;5093314;28;20099;-82
2021/04/22 07:45:37;;;;;;;10.50;6.85;;;25.10;40.00;;;;;;5091379;28;20074;-81
2021/04/22 07:48:04;;;;;;;20.55;10.20;;;25.50;38.20;;;;;;5092866;28;20027;-82
2021/04/22 07:50:31;;;;;;;22.85;11.13;;;25.70;38.20;;;;;;5092694;28;20020;-82
2021/04/22 07:52:58;;;;;;;15.32;8.07;;;25.80;37.60;;;;;;5091355;28;20549;-81
2021/04/22 07:55:32;;;;;;;29.35;12.52;;;25.90;37.50;;;;;;5092107;28;20536;-82
2021/04/22 07:57:58;;;;;;;18.02;8.18;;;25.90;37.20;;;;;;5091723;28;20035;-82
2021/04/22 08:00:25;;;;;;;11.30;6.57;;;25.60;36.50;;;;;;5092908;28;20019;-82
2021/04/22 08:02:51;;;;;;;10.10;6.68;;;25.40;36.90;;;;;;5091628;28;20022;-81
2021/04/22 08:05:22;;;;;;;8.77;7.22;;;25.40;36.60;;;;;;5092748;28;20066;-82
2021/04/22 08:07:47;;;;;;;10.98;7.00;;;25.30;36.70;;;;;;5096357;28;20458;-82
2021/04/22 08:10:17;;;;;;;8.55;6.43;;;25.30;36.60;;;;;;5097264;28;20074;-82
2021/04/22 08:12:43;;;;;;;14.80;8.65;;;25.20;36.30;;;;;;5097433;28;20022;-83
2021/04/22 08:15:11;;;;;;;13.52;6.80;;;25.30;36.90;;;;;;5097408;28;20098;-82
2021/04/22 08:17:41;;;;;;;10.23;5.88;;;25.40;36.50;;;;;;5096697;28;20466;-83
2021/04/22 08:20:12;;;;;;;9.55;5.80;;;25.40;36.60;;;;;;5096966;28;20028;-82
2021/04/22 08:22:38;;;;;;;10.57;5.63;;;25.40;36.10;;;;;;5096500;28;20031;-82
2021/04/22 08:25:11;;;;;;;7.03;5.95;;;25.30;35.70;;;;;;5097295;28;20077;-82
2021/04/22 08:27:37;;;;;;;8.70;6.00;;;25.30;35.70;;;;;;5101921;28;20070;-82
2021/04/22 08:30:06;;;;;;;8.25;5.80;;;25.40;35.90;;;;;;5105960;28;20005;-82
2021/04/22 08:32:32;;;;;;;11.40;5.97;;;25.30;35.20;;;;;;5119566;28;20020;-77
2021/04/22 08:34:57;;;;;;;9.38;6.90;;;25.40;36.80;;;;;;5120110;28;20091;-82
2021/04/22 08:37:23;;;;;;;5.45;4.55;;;26.00;37.10;;;;;;5119981;28;20004;-82
2021/04/22 08:39:49;;;;;;;9.00;5.05;;;26.50;35.30;;;;;;5112511;28;20046;-81
2021/04/22 08:42:15;;;;;;;8.90;5.20;;;26.40;34.30;;;;;;5097329;28;20037;-83
2021/04/22 08:44:41;;;;;;;24.17;5.80;;;26.20;33.60;;;;;;5096772;28;20024;-82
2021/04/22 08:47:07;;;;;;;8.00;5.10;;;25.50;33.90;;;;;;5097328;28;20104;-82
2021/04/22 08:49:33;;;;;;;6.60;5.13;;;25.40;34.80;;;;;;5081186;28;20055;-81
2021/04/22 08:51:59;;;;;;;7.18;4.93;;;25.10;34.40;;;;;;5095414;28;20020;-81
2021/04/22 08:54:25;;;;;;;7.88;5.47;;;25.10;34.60;;;;;;5095964;28;20409;-79
2021/04/22 08:56:51;;;;;;;6.55;5.20;;;25.10;35.40;;;;;;5094356;28;20015;-82
2021/04/22 08:59:18;;;;;;;8.82;5.50;;;25.20;34.30;;;;;;5096050;28;20032;-82
2021/04/22 09:01:44;;;;;;;8.52;5.75;;;25.40;34.40;;;;;;5095718;28;20022;-81
2021/04/22 09:04:11;;;;;;;8.73;5.32;;;25.80;34.70;;;;;;5093974;28;20115;-82
2021/04/22 09:06:38;;;;;;;7.05;4.93;;;25.80;33.30;;;;;;5095153;28;20043;-82
2021/04/22 09:09:06;;;;;;;12.18;4.97;;;26.10;33.70;;;;;;5095415;28;20016;-81
2021/04/22 09:11:42;;;;;;;6.25;3.80;;;26.30;34.30;;;;;;5094225;28;20020;-81
2021/04/22 09:14:17;;;;;;;5.55;4.38;;;26.40;33.70;;;;;;5096724;28;20096;-83
2021/04/22 09:16:43;;;;;;;5.70;3.33;;;26.40;33.60;;;;;;5094910;28;20048;-82
2021/04/22 09:19:16;;;;;;;6.03;3.55;;;26.30;32.00;;;;;;5093974;28;20056;-82
2021/04/22 09:21:49;;;;;;;8.88;5.28;;;25.90;32.30;;;;;;5094072;28;20032;-80
2021/04/22 09:24:18;;;;;;;5.65;4.10;;;25.80;33.90;;;;;;5081357;28;20016;-81
2021/04/22 09:26:51;;;;;;;6.38;4.18;;;25.90;33.30;;;;;;5095245;28;20067;-80
2021/04/22 09:29:35;;;;;;;5.65;4.45;;;25.40;32.60;;;;;;5095366;28;20026;-82
2021/04/22 09:32:18;;;;;;;12.02;4.60;;;24.30;33.60;;;;;;5095066;28;20103;-79
2021/04/22 09:35:07;;;;;;;7.18;4.75;;;23.40;35.00;;;;;;5094107;28;20028;-81
2021/04/22 09:37:40;;;;;;;6.13;4.30;;;22.50;36.10;;;;;;5095701;28;20024;-81
2021/04/22 09:40:35;;;;;;;5.95;4.60;;;21.80;36.80;;;;;;5093872;28;20032;-80
2021/04/22 09:43:06;;;;;;;6.88;4.68;;;21.20;37.50;;;;;;5081590;28;20028;-81
2021/04/22 09:45:33;;;;;;;6.45;4.50;;;21.00;38.40;;;;;;5095417;28;20035;-80
2021/04/22 09:47:59;;;;;;;6.63;4.55;;;21.10;38.00;;;;;;5095454;28;20027;-80
2021/04/22 09:50:27;;;;;;;29.67;10.05;;;21.00;37.90;;;;;;5095168;28;20418;-78
2021/04/22 09:52:57;;;;;;;39.80;14.25;;;21.00;38.00;;;;;;5094567;28;20024;-81
2021/04/22 09:55:29;;;;;;;33.58;14.05;;;21.70;38.40;;;;;;5093854;28;20012;-82
2021/04/22 09:57:56;;;;;;;10.30;3.97;;;22.70;37.90;;;;;;5093718;28;20021;-79
2021/04/22 10:00:28;;;;;;;10.00;5.78;;;23.10;35.50;;;;;;5095894;28;20107;-80
2021/04/22 10:02:57;;;;;;;8.00;5.63;;;23.00;35.60;;;;;;5094858;28;20016;-80
2021/04/22 10:05:31;;;;;;;6.32;4.53;;;22.80;35.40;;;;;;5094421;28;20031;-80
2021/04/22 10:08:09;;;;;;;11.67;7.23;;;22.40;34.50;;;;;;5095453;28;20031;-79
2021/04/22 10:10:36;;;;;;;36.28;15.10;;;21.90;35.50;;;;;;5080728;28;20285;-80
2021/04/22 10:13:10;;;;;;;40.40;15.85;;;21.60;36.40;;;;;;5094570;28;20055;-80
2021/04/22 10:15:36;;;;;;;48.92;16.92;;;21.40;37.10;;;;;;5092988;28;20095;-81
2021/04/22 10:18:08;;;;;;;32.67;13.55;;;21.10;37.30;;;;;;5094665;28;20420;-81
2021/04/22 10:20:38;;;;;;;30.60;11.35;;;21.00;37.90;;;;;;5094287;28;20026;-80
2021/04/22 10:23:07;;;;;;;16.42;6.85;;;20.90;38.40;;;;;;5094235;28;20123;-79
2021/04/22 10:25:37;;;;;;;12.02;6.80;;;20.90;39.00;;;;;;5099838;28;20367;-80
2021/04/22 10:28:08;;;;;;;24.85;10.98;;;20.90;38.30;;;;;;5115723;28;20039;-80
2021/04/22 10:30:35;;;;;;;11.68;6.68;;;20.80;38.80;;;;;;5116650;28;20470;-79
2021/04/22 10:33:01;;;;;;;12.82;6.97;;;20.70;38.60;;;;;;5114858;28;20022;-81
2021/04/22 10:35:31;;;;;;;10.65;6.72;;;20.60;38.80;;;;;;5112299;28;20012;-80
2021/04/22 10:37:58;;;;;;;11.07;6.70;;;20.60;39.40;;;;;;5098281;28;20051;-80
2021/04/22 10:40:27;;;;;;;6.18;4.25;;;20.90;38.90;;;;;;5094194;28;20112;-80
2021/04/22 10:42:59;;;;;;;10.18;4.65;;;21.10;37.10;;;;;;5094022;28;20027;-80
2021/04/22 10:45:26;;;;;;;6.70;4.90;;;21.10;37.10;;;;;;5095335;28;20450;-81
2021/04/22 10:47:52;;;;;;;8.63;5.20;;;21.00;37.40;;;;;;5094408;28;20085;-82
2021/04/22 10:50:24;;;;;;;6.85;4.60;;;20.80;37.80;;;;;;5094430;28;20099;-81
2021/04/22 10:52:52;;;;;;;7.47;4.30;;;20.70;37.70;;;;;;5093055;28;20024;-81
2021/04/22 10:55:31;;;;;;;6.97;5.07;;;20.60;37.90;;;;;;5092839;28;20069;-79
2021/04/22 10:58:00;;;;;;;9.15;5.93;;;20.50;38.80;;;;;;5092440;28;20020;-79
2021/04/22 11:00:29;;;;;;;8.07;5.68;;;21.00;39.50;;;;;;5093442;28;20093;-78
2021/04/22 11:02:57;;;;;;;11.60;6.85;;;22.00;39.10;;;;;;5093902;28;20024;-81
2021/04/22 11:05:31;;;;;;;7.88;5.22;;;22.90;38.40;;;;;;5091921;28;20020;-81
2021/04/22 11:08:06;;;;;;;8.35;4.93;;;23.40;36.70;;;;;;5075358;28;20124;-80
2021/04/22 11:10:34;;;;;;;5.97;3.28;;;23.40;36.30;;;;;;5079018;28;20051;-81
2021/04/22 11:13:20;;;;;;;5.57;3.50;;;23.30;34.50;;;;;;5092367;28;20462;-80
2021/04/22 11:15:55;;;;;;;8.40;3.97;;;22.70;33.80;;;;;;5080800;28;20020;-81
2021/04/22 11:18:32;;;;;;;7.57;3.90;;;22.20;35.10;;;;;;5091659;28;20039;-81
2021/04/22 11:20:57;;;;;;;5.70;3.97;;;21.90;35.70;;;;;;5092708;28;20604;-82
2021/04/22 11:23:24;;;;;;;9.80;5.38;;;22.10;36.40;;;;;;5093624;28;20016;-82
2021/04/22 11:25:52;;;;;;;7.63;3.75;;;22.50;36.60;;;;;;5079929;28;20075;-81
2021/04/22 11:28:34;;;;;;;7.85;4.05;;;22.90;36.00;;;;;;5093593;28;20061;-81
2021/04/22 11:31:12;;;;;;;19.45;12.85;;;23.00;35.60;;;;;;5078387;28;20028;-80
2021/04/22 11:33:39;;;;;;;20.23;8.73;;;23.10;35.40;;;;;;5092974;28;20104;-80
2021/04/22 11:36:20;;;;;;;5.55;3.60;;;23.10;36.50;;;;;;5091858;28;20012;-81
2021/04/22 11:39:04;;;;;;;6.95;4.10;;;23.10;35.30;;;;;;5092614;28;20077;-80
2021/04/22 11:41:34;;;;;;;5.38;3.67;;;22.90;35.20;;;;;;5093598;28;20450;-81
2021/04/22 11:44:09;;;;;;;6.88;3.83;;;22.50;34.90;;;;;;5092685;28;20454;-81
2021/04/22 11:46:36;;;;;;;;;;;22.20;34.70;;;;;;5093193;28;20027;-81
2021/04/22 11:49:03;;;;;;;6.65;4.65;;;21.70;35.00;;;;;;5092676;28;19907;-80
2021/04/22 11:51:41;;;;;;;7.32;4.70;;;21.30;36.50;;;;;;5092632;28;20020;-81
2021/04/22 11:54:36;;;;;;;7.88;4.57;;;21.10;36.10;;;;;;5091816;28;20028;-79
2021/04/22 11:57:04;;;;;;;8.57;5.63;;;21.10;37.20;;;;;;5079340;28;20024;-81
2021/04/22 11:59:31;;;;;;;8.57;5.07;;;21.10;37.40;;;;;;5092801;28;20024;-81
2021/04/22 12:02:04;;;;;;;8.15;4.60;;;21.00;37.00;;;;;;5092446;28;20093;-81
2021/04/22 12:04:48;;;;;;;26.42;10.80;;;20.90;36.90;;;;;;5092874;28;20020;-81
2021/04/22 12:07:22;;;;;;;8.30;4.90;;;21.10;37.50;;;;;;5075924;28;20028;-82
2021/04/22 12:09:57;;;;;;;8.75;4.22;;;21.30;36.70;;;;;;5087172;28;20083;-79
2021/04/22 12:12:26;;;;;;;13.37;4.57;;;21.40;36.80;;;;;;5084250;28;20013;-81
2021/04/22 12:14:55;;;;;;;7.05;4.10;;;21.40;36.00;;;;;;5087450;28;20250;-83
2021/04/22 12:17:24;;;;;;;5.80;4.25;;;21.50;35.70;;;;;;5093270;28;20022;-83
2021/04/22 12:19:56;;;;;;;6.25;4.20;;;21.40;35.50;;;;;;5093346;28;20462;-82
2021/04/22 12:22:29;;;;;;;14.00;6.55;;;21.30;35.80;;;;;;5094124;28;20008;-82
2021/04/22 12:24:56;;;;;;;14.10;6.40;;;21.30;36.20;;;;;;5104845;28;20020;-80
2021/04/22 12:27:36;;;;;;;8.13;4.25;;;21.20;36.60;;;;;;5116886;28;20075;-81
2021/04/22 12:30:20;;;;;;;7.47;4.05;;;21.00;36.60;;;;;;5117303;28;20012;-82
2021/04/22 12:32:57;;;;;;;6.45;4.50;;;20.70;36.60;;;;;;5104117;28;20298;-81
2021/04/22 12:35:26;;;;;;;6.28;4.40;;;20.40;36.90;;;;;;5102839;28;20058;-81
2021/04/22 12:37:54;;;;;;;8.60;4.70;;;20.20;37.70;;;;;;5092160;28;20370;-81
2021/04/22 12:40:20;;;;;;;8.27;4.63;;;19.90;41.90;;;;;;5094204;28;20020;-76